Time;durP1;ratioP1;P1;durP2;ratioP2;P2;SDS_P1;SDS_P2;PMS_P1;PMS_P2;Temp;Humidity;BMP_temperature;BMP_pressure;BME280_temperature;BME280_humidity;BME280_pressure;Samples;Min_cycle;Max_cycle;Signal;HPM_P1;HPM_P2
2022/07/20 00:01:36;;;;;;;21.90;8.20;;;;;;;;;;5124822;28;20019;-73
2022/07/20 00:04:01;;;;;;;18.25;8.70;;;;;;;;;;5124278;28;20069;-73
2022/07/20 00:06:27;;;;;;;15.73;8.55;;;;;;;;;;5117688;28;20019;-73
2022/07/20 00:11:36;;;;;;;16.30;8.75;;;;;;;;;;5116994;28;20022;-73
2022/07/20 00:14:03;;;;;;;18.02;8.35;;;;;;;;;;5124452;28;20027;-73
2022/07/20 00:16:31;;;;;;;13.02;8.63;;;;;;;;;;5124331;28;20079;-73
2022/07/20 00:18:57;;;;;;;14.80;8.30;;;;;;;;;;5124166;28;20049;-73
2022/07/20 00:21:22;;;;;;;17.27;8.60;;;;;;;;;;5117259;28;20020;-73
2022/07/20 00:23:48;;;;;;;16.00;9.27;;;;;;;;;;5123865;28;20078;-73
2022/07/20 00:26:13;;;;;;;15.88;9.00;;;;;;;;;;5124143;28;20035;-74
2022/07/20 00:28:38;;;;;;;14.15;8.23;;;;;;;;;;5124029;28;20023;-73
2022/07/20 00:31:04;;;;;;;17.40;9.38;;;;;;;;;;5124172;28;20222;-73
2022/07/20 00:33:30;;;;;;;21.23;8.90;;;;;;;;;;5123646;28;20023;-73
2022/07/20 00:35:55;;;;;;;22.33;9.40;;;;;;;;;;5123686;28;20023;-73
2022/07/20 00:38:21;;;;;;;27.70;9.00;;;;;;;;;;5123250;28;20157;-73
2022/07/20 00:40:46;;;;;;;18.40;9.57;;;;;;;;;;5123730;28;20219;-75
2022/07/20 00:43:11;;;;;;;20.90;9.68;;;;;;;;;;5123719;28;20311;-73
2022/07/20 00:45:37;;;;;;;22.15;9.52;;;;;;;;;;5123522;28;20064;-73
2022/07/20 00:48:03;;;;;;;22.02;9.38;;;;;;;;;;5123778;28;20043;-73
2022/07/20 00:50:29;;;;;;;18.33;9.65;;;;;;;;;;5123168;28;20016;-73
2022/07/20 00:52:55;;;;;;;16.88;9.18;;;;;;;;;;5123669;28;20023;-73
2022/07/20 00:55:21;;;;;;;22.38;10.32;;;;;;;;;;5123478;28;20103;-73
2022/07/20 00:57:46;;;;;;;21.42;9.98;;;;;;;;;;5123210;28;20133;-73
2022/07/20 01:00:13;;;;;;;18.35;9.88;;;;;;;;;;5119090;28;20083;-73
2022/07/20 01:02:42;;;;;;;17.65;9.98;;;;;;;;;;5123270;28;20019;-73
2022/07/20 01:05:14;;;;;;;18.13;10.15;;;;;;;;;;5117459;28;20024;-73
2022/07/20 01:07:44;;;;;;;17.00;9.80;;;;;;;;;;5120371;28;20399;-73
2022/07/20 01:10:10;;;;;;;19.65;10.07;;;;;;;;;;5113063;28;20060;-73
2022/07/20 01:12:43;;;;;;;20.10;10.02;;;;;;;;;;5119139;28;20023;-73
2022/07/20 01:15:09;;;;;;;16.15;9.32;;;;;;;;;;5111861;28;20072;-74
2022/07/20 01:17:35;;;;;;;15.90;9.35;;;;;;;;;;5123043;28;20024;-73
2022/07/20 01:20:00;;;;;;;15.25;9.40;;;;;;;;;;5116322;28;20024;-73
2022/07/20 01:22:25;;;;;;;18.88;9.90;;;;;;;;;;5116436;28;20272;-73
2022/07/20 01:24:51;;;;;;;19.85;9.23;;;;;;;;;;5122880;28;20024;-73
2022/07/20 01:27:16;;;;;;;17.98;9.63;;;;;;;;;;5122746;28;20102;-73
2022/07/20 01:29:41;;;;;;;15.23;9.40;;;;;;;;;;5117842;28;20027;-73
2022/07/20 01:32:07;;;;;;;20.38;10.13;;;;;;;;;;5122600;28;20024;-73
2022/07/20 01:34:32;;;;;;;16.83;9.30;;;;;;;;;;5122612;28;20027;-73
2022/07/20 01:36:58;;;;;;;16.70;9.50;;;;;;;;;;5122680;28;20089;-73
2022/07/20 01:39:23;;;;;;;15.43;9.57;;;;;;;;;;5122232;28;20262;-73
2022/07/20 01:41:53;;;;;;;17.15;9.80;;;;;;;;;;5122494;28;20185;-73
2022/07/20 01:44:24;;;;;;;16.20;9.45;;;;;;;;;;5122449;28;20063;-73
2022/07/20 01:46:50;;;;;;;17.73;9.98;;;;;;;;;;5115416;28;20087;-73
2022/07/20 01:49:17;;;;;;;21.67;9.55;;;;;;;;;;5122204;28;20051;-73
2022/07/20 01:51:43;;;;;;;18.45;10.05;;;;;;;;;;5122253;28;20065;-73
2022/07/20 01:54:08;;;;;;;18.58;10.07;;;;;;;;;;5119947;28;20087;-73
2022/07/20 01:56:34;;;;;;;21.60;10.35;;;;;;;;;;5122278;28;20096;-73
2022/07/20 01:58:59;;;;;;;24.38;10.18;;;;;;;;;;5122129;28;20043;-73
2022/07/20 02:01:25;;;;;;;15.70;9.98;;;;;;;;;;5122149;28;20032;-75
2022/07/20 02:03:50;;;;;;;19.77;10.43;;;;;;;;;;5121945;28;20030;-73
2022/07/20 02:06:15;;;;;;;15.23;10.45;;;;;;;;;;5115257;28;20015;-73
2022/07/20 02:08:41;;;;;;;15.95;10.00;;;;;;;;;;5121842;28;20031;-73
2022/07/20 02:11:06;;;;;;;19.25;10.77;;;;;;;;;;5122002;28;20216;-73
2022/07/20 02:13:35;;;;;;;18.33;11.18;;;;;;;;;;5121403;28;20212;-74
2022/07/20 02:16:15;;;;;;;17.63;10.13;;;;;;;;;;5095311;28;20226;-73
2022/07/20 02:18:45;;;;;;;19.05;10.93;;;;;;;;;;5121831;28;20031;-73
2022/07/20 02:21:10;;;;;;;21.92;11.90;;;;;;;;;;5113013;28;20087;-73
2022/07/20 02:23:36;;;;;;;23.80;11.65;;;;;;;;;;5117220;28;20065;-73
2022/07/20 02:26:02;;;;;;;16.90;10.77;;;;;;;;;;5122010;28;20043;-74
2022/07/20 02:28:27;;;;;;;19.92;11.02;;;;;;;;;;5121603;28;20027;-73
2022/07/20 02:30:52;;;;;;;18.15;10.43;;;;;;;;;;5122114;28;20034;-74
2022/07/20 02:33:18;;;;;;;16.58;11.02;;;;;;;;;;5121826;28;20024;-73
2022/07/20 02:35:43;;;;;;;20.85;10.65;;;;;;;;;;5121460;28;20027;-73
2022/07/20 02:38:09;;;;;;;19.77;10.50;;;;;;;;;;5121383;28;20302;-73
2022/07/20 02:40:37;;;;;;;17.55;10.52;;;;;;;;;;5103448;28;20012;-73
2022/07/20 02:43:03;;;;;;;18.10;10.77;;;;;;;;;;5115542;28;20233;-73
2022/07/20 02:45:28;;;;;;;17.70;10.98;;;;;;;;;;5121498;28;20328;-73
2022/07/20 02:47:54;;;;;;;20.10;10.98;;;;;;;;;;5109664;28;20085;-73
2022/07/20 02:50:20;;;;;;;17.77;10.65;;;;;;;;;;5120389;28;20365;-74
2022/07/20 02:52:45;;;;;;;18.50;10.80;;;;;;;;;;5121160;28;20222;-73
2022/07/20 02:55:11;;;;;;;20.38;11.25;;;;;;;;;;5120946;28;20339;-74
2022/07/20 02:57:37;;;;;;;21.88;11.50;;;;;;;;;;5121487;28;20240;-74
2022/07/20 03:00:05;;;;;;;16.85;10.98;;;;;;;;;;5121058;28;20134;-74
2022/07/20 03:02:30;;;;;;;16.83;9.85;;;;;;;;;;5121205;28;20015;-73
2022/07/20 03:04:56;;;;;;;18.83;10.00;;;;;;;;;;5112757;28;20027;-73
2022/07/20 03:07:21;;;;;;;19.30;10.40;;;;;;;;;;5118177;28;20095;-73
2022/07/20 03:09:46;;;;;;;15.20;9.35;;;;;;;;;;5121234;28;20027;-73
2022/07/20 03:12:12;;;;;;;14.55;9.30;;;;;;;;;;5118663;28;20088;-74
2022/07/20 03:14:37;;;;;;;18.05;9.27;;;;;;;;;;5114787;28;20090;-73
2022/07/20 03:17:02;;;;;;;15.43;9.10;;;;;;;;;;5121457;28;20023;-74
2022/07/20 03:19:28;;;;;;;16.83;8.30;;;;;;;;;;5120758;28;20027;-73
2022/07/20 03:21:53;;;;;;;17.88;8.07;;;;;;;;;;5114436;28;20024;-73
2022/07/20 03:24:18;;;;;;;17.33;8.18;;;;;;;;;;5120736;28;20042;-73
2022/07/20 03:26:44;;;;;;;16.50;7.65;;;;;;;;;;5124782;28;20065;-73
2022/07/20 03:29:09;;;;;;;13.90;7.60;;;;;;;;;;5125152;28;20028;-73
2022/07/20 03:31:34;;;;;;;14.00;7.80;;;;;;;;;;5123105;28;20024;-74
2022/07/20 03:34:00;;;;;;;15.63;7.97;;;;;;;;;;5119548;28;20111;-73
2022/07/20 03:36:25;;;;;;;13.77;7.50;;;;;;;;;;5114908;28;20019;-73
2022/07/20 03:38:51;;;;;;;13.52;7.28;;;;;;;;;;5124633;28;20090;-73
2022/07/20 03:41:16;;;;;;;14.88;7.05;;;;;;;;;;5106205;28;20035;-73
2022/07/20 03:43:41;;;;;;;13.85;6.45;;;;;;;;;;5119936;28;20374;-73
2022/07/20 03:46:07;;;;;;;11.27;6.78;;;;;;;;;;5118570;28;20310;-73
2022/07/20 03:48:32;;;;;;;12.88;7.00;;;;;;;;;;5124423;28;20366;-73
2022/07/20 03:50:57;;;;;;;12.88;6.57;;;;;;;;;;5124852;28;20312;-73
2022/07/20 03:53:23;;;;;;;12.70;6.63;;;;;;;;;;5124160;28;20012;-73
2022/07/20 03:55:48;;;;;;;10.98;5.70;;;;;;;;;;5124471;28;20308;-73
2022/07/20 03:58:14;;;;;;;14.38;6.53;;;;;;;;;;5124553;28;20055;-73
2022/07/20 04:00:39;;;;;;;10.27;6.00;;;;;;;;;;5124437;28;20253;-73
2022/07/20 04:03:05;;;;;;;12.80;6.50;;;;;;;;;;5124296;28;20020;-73
2022/07/20 04:05:30;;;;;;;14.25;5.47;;;;;;;;;;5117378;28;20035;-73
2022/07/20 04:07:56;;;;;;;13.27;5.72;;;;;;;;;;5123922;28;20023;-73
2022/07/20 04:10:21;;;;;;;14.50;5.97;;;;;;;;;;5123927;28;20083;-73
2022/07/20 04:12:46;;;;;;;13.23;6.18;;;;;;;;;;5123868;28;20037;-73
2022/07/20 04:15:12;;;;;;;13.73;6.43;;;;;;;;;;5124272;28;20087;-74
2022/07/20 04:17:40;;;;;;;13.00;6.38;;;;;;;;;;5124239;28;20189;-73
2022/07/20 04:20:05;;;;;;;9.95;6.30;;;;;;;;;;5118059;28;20027;-73
2022/07/20 04:22:31;;;;;;;13.32;6.55;;;;;;;;;;5117218;28;20215;-73
2022/07/20 04:24:56;;;;;;;11.95;6.47;;;;;;;;;;5123610;28;20034;-73
2022/07/20 04:27:22;;;;;;;11.52;5.88;;;;;;;;;;5124065;28;20088;-74
2022/07/20 04:29:47;;;;;;;12.80;6.88;;;;;;;;;;5123820;28;20055;-73
2022/07/20 04:32:12;;;;;;;13.10;6.90;;;;;;;;;;5123824;28;20023;-74
2022/07/20 04:34:41;;;;;;;13.77;6.90;;;;;;;;;;5123720;28;20015;-73
2022/07/20 04:37:06;;;;;;;10.90;6.72;;;;;;;;;;5123067;28;20354;-73
2022/07/20 04:39:32;;;;;;;13.02;7.43;;;;;;;;;;5123527;28;20028;-73
2022/07/20 04:41:57;;;;;;;14.45;7.25;;;;;;;;;;5122392;28;20016;-74
2022/07/20 04:44:22;;;;;;;13.75;7.20;;;;;;;;;;5123428;28;20026;-74
2022/07/20 04:46:48;;;;;;;14.10;7.30;;;;;;;;;;5123547;28;20026;-73
2022/07/20 04:49:13;;;;;;;15.43;7.50;;;;;;;;;;5121060;28;20316;-73
2022/07/20 04:51:39;;;;;;;14.32;7.30;;;;;;;;;;5119630;28;20031;-73
2022/07/20 04:54:04;;;;;;;16.95;7.80;;;;;;;;;;5122962;28;20126;-73
2022/07/20 04:56:30;;;;;;;13.52;7.95;;;;;;;;;;5123210;28;20094;-73
2022/07/20 04:58:55;;;;;;;15.30;7.80;;;;;;;;;;5122990;28;20295;-73
2022/07/20 05:01:24;;;;;;;14.60;7.85;;;;;;;;;;5123537;28;20020;-73
2022/07/20 05:03:50;;;;;;;15.25;7.32;;;;;;;;;;5123196;28;20019;-73
2022/07/20 05:06:15;;;;;;;15.80;7.40;;;;;;;;;;5116527;28;20524;-73
2022/07/20 05:08:41;;;;;;;22.50;7.30;;;;;;;;;;5122786;28;20051;-73
2022/07/20 05:11:06;;;;;;;13.30;7.40;;;;;;;;;;5123205;28;20016;-73
2022/07/20 05:13:32;;;;;;;13.38;7.65;;;;;;;;;;5122950;28;20024;-74
2022/07/20 05:15:57;;;;;;;13.73;7.70;;;;;;;;;;5122745;28;20061;-73
2022/07/20 05:18:23;;;;;;;14.48;7.40;;;;;;;;;;5123142;28;20055;-73
2022/07/20 05:20:48;;;;;;;15.63;7.20;;;;;;;;;;5117363;28;20079;-73
2022/07/20 05:23:13;;;;;;;14.25;7.55;;;;;;;;;;5116341;28;20020;-74
2022/07/20 05:25:39;;;;;;;14.48;7.38;;;;;;;;;;5121212;28;20307;-74
2022/07/20 05:28:06;;;;;;;15.73;7.85;;;;;;;;;;5122828;28;20335;-73
2022/07/20 05:30:32;;;;;;;14.13;7.28;;;;;;;;;;5122720;28;20034;-73
2022/07/20 05:32:57;;;;;;;14.57;7.45;;;;;;;;;;5122820;28;20023;-74
2022/07/20 05:35:23;;;;;;;14.48;7.65;;;;;;;;;;5122534;28;20028;-73
2022/07/20 05:37:48;;;;;;;13.48;7.53;;;;;;;;;;5094861;28;20444;-74
2022/07/20 05:40:13;;;;;;;13.82;7.47;;;;;;;;;;5122355;28;20022;-73
2022/07/20 05:42:39;;;;;;;13.23;8.27;;;;;;;;;;5122387;28;20035;-73
2022/07/20 05:45:05;;;;;;;11.68;7.35;;;;;;;;;;5096874;28;20012;-73
2022/07/20 05:47:30;;;;;;;18.55;9.55;;;;;;;;;;5115587;28;20087;-78
2022/07/20 05:49:57;;;;;;;18.23;9.15;;;;;;;;;;5120976;28;20038;-73
2022/07/20 05:52:23;;;;;;;16.65;8.80;;;;;;;;;;5121901;28;20083;-73
2022/07/20 05:54:48;;;;;;;15.30;8.85;;;;;;;;;;5122143;28;20246;-73
2022/07/20 05:57:13;;;;;;;15.27;8.50;;;;;;;;;;5122218;28;20097;-74
2022/07/20 05:59:39;;;;;;;17.63;8.73;;;;;;;;;;5121786;28;20028;-73
2022/07/20 06:02:05;;;;;;;15.50;9.15;;;;;;;;;;5122170;28;20430;-73
2022/07/20 06:04:30;;;;;;;14.88;8.90;;;;;;;;;;5103827;28;20027;-73
2022/07/20 06:06:56;;;;;;;16.38;8.98;;;;;;;;;;5122095;28;20020;-74
2022/07/20 06:09:21;;;;;;;16.55;8.98;;;;;;;;;;5121846;28;20142;-73
2022/07/20 06:11:46;;;;;;;13.98;8.60;;;;;;;;;;5122007;28;20088;-73
2022/07/20 06:14:12;;;;;;;15.98;8.77;;;;;;;;;;5121920;28;20027;-73
2022/07/20 06:16:37;;;;;;;17.83;8.90;;;;;;;;;;5121918;28;20061;-73
2022/07/20 06:19:02;;;;;;;15.73;8.75;;;;;;;;;;5121943;28;20118;-73
2022/07/20 06:21:28;;;;;;;18.02;9.07;;;;;;;;;;5122289;28;20177;-73
2022/07/20 06:23:53;;;;;;;16.13;8.93;;;;;;;;;;5114636;28;20312;-73
2022/07/20 06:26:21;;;;;;;13.57;8.15;;;;;;;;;;5121587;28;20023;-74
2022/07/20 06:28:47;;;;;;;15.70;8.38;;;;;;;;;;5121645;28;20023;-74
2022/07/20 06:31:12;;;;;;;15.02;8.50;;;;;;;;;;5121593;28;20086;-74
2022/07/20 06:33:37;;;;;;;12.98;8.20;;;;;;;;;;5103175;28;20027;-74
2022/07/20 06:36:03;;;;;;;17.30;8.45;;;;;;;;;;5121710;28;20027;-74
2022/07/20 06:38:28;;;;;;;17.45;9.38;;;;;;;;;;5121098;28;20042;-73
2022/07/20 06:40:54;;;;;;;15.63;9.57;;;;;;;;;;5096776;28;20020;-74
2022/07/20 06:43:19;;;;;;;17.08;9.23;;;;;;;;;;5121486;28;20031;-73
2022/07/20 06:45:46;;;;;;;15.13;9.80;;;;;;;;;;5121524;28;20019;-74
2022/07/20 06:48:12;;;;;;;14.75;9.57;;;;;;;;;;5121315;28;20109;-73
2022/07/20 06:50:37;;;;;;;13.23;9.00;;;;;;;;;;5121250;28;20624;-74
2022/07/20 06:53:02;;;;;;;17.23;10.70;;;;;;;;;;5121278;28;20099;-74
2022/07/20 06:55:28;;;;;;;17.70;10.35;;;;;;;;;;5121217;28;20015;-73
2022/07/20 06:57:53;;;;;;;18.52;9.63;;;;;;;;;;5121366;28;20024;-73
2022/07/20 07:00:18;;;;;;;15.88;9.40;;;;;;;;;;5120896;28;20136;-73
2022/07/20 07:02:44;;;;;;;16.42;9.68;;;;;;;;;;5121333;28;20322;-73
2022/07/20 07:05:10;;;;;;;22.30;9.93;;;;;;;;;;5115918;28;20336;-73
2022/07/20 07:07:36;;;;;;;19.95;10.45;;;;;;;;;;5117253;28;20254;-73
2022/07/20 07:10:01;;;;;;;19.33;11.20;;;;;;;;;;5121291;28;20020;-73
2022/07/20 07:12:26;;;;;;;17.85;9.75;;;;;;;;;;5121242;28;20336;-73
2022/07/20 07:14:52;;;;;;;19.23;9.52;;;;;;;;;;5121159;28;20312;-73
2022/07/20 07:17:17;;;;;;;16.50;10.45;;;;;;;;;;5094507;28;20342;-72
2022/07/20 07:19:42;;;;;;;14.85;9.38;;;;;;;;;;5120872;28;20427;-73
2022/07/20 07:22:08;;;;;;;17.75;9.80;;;;;;;;;;5120971;28;20028;-72
2022/07/20 07:24:34;;;;;;;18.63;9.98;;;;;;;;;;5114479;28;20030;-72
2022/07/20 07:26:59;;;;;;;15.27;10.02;;;;;;;;;;5121021;28;20060;-72
2022/07/20 07:29:26;;;;;;;17.23;9.80;;;;;;;;;;5120825;28;20055;-72
2022/07/20 07:31:52;;;;;;;17.95;9.48;;;;;;;;;;5121129;28;20207;-72
2022/07/20 07:34:17;;;;;;;20.70;10.65;;;;;;;;;;5120861;28;20028;-72
2022/07/20 07:36:43;;;;;;;15.50;10.13;;;;;;;;;;5102787;28;20050;-72
2022/07/20 07:39:08;;;;;;;19.30;9.10;;;;;;;;;;5120661;28;20146;-72
2022/07/20 07:41:34;;;;;;;19.70;9.05;;;;;;;;;;5121008;28;20087;-72
2022/07/20 07:43:59;;;;;;;16.48;9.45;;;;;;;;;;5121002;28;20183;-72
2022/07/20 07:46:25;;;;;;;16.85;9.57;;;;;;;;;;5114414;28;20024;-72
2022/07/20 07:48:50;;;;;;;22.52;9.52;;;;;;;;;;5107678;28;20363;-72
2022/07/20 07:51:16;;;;;;;21.63;10.10;;;;;;;;;;5120385;28;20044;-72
2022/07/20 07:53:41;;;;;;;17.58;10.32;;;;;;;;;;5120375;28;20199;-72
2022/07/20 07:56:07;;;;;;;16.13;9.57;;;;;;;;;;5120854;28;20027;-72
2022/07/20 07:58:32;;;;;;;18.38;10.30;;;;;;;;;;5120630;28;20301;-73
2022/07/20 08:00:58;;;;;;;18.63;10.25;;;;;;;;;;5120756;28;20342;-72
2022/07/20 08:03:23;;;;;;;20.05;10.35;;;;;;;;;;5120612;28;20030;-73
2022/07/20 08:05:49;;;;;;;15.55;10.10;;;;;;;;;;5113975;28;20039;-73
2022/07/20 08:08:16;;;;;;;16.20;9.63;;;;;;;;;;5120549;28;20099;-74
2022/07/20 08:10:42;;;;;;;14.07;9.70;;;;;;;;;;5120697;28;20024;-73
2022/07/20 08:13:09;;;;;;;16.98;10.10;;;;;;;;;;5113103;28;20035;-72
2022/07/20 08:15:34;;;;;;;20.00;10.50;;;;;;;;;;5124031;28;20057;-72
2022/07/20 08:18:00;;;;;;;16.85;10.07;;;;;;;;;;5124089;28;20316;-72
2022/07/20 08:20:25;;;;;;;15.48;10.57;;;;;;;;;;5124052;28;20151;-72
2022/07/20 08:22:51;;;;;;;16.98;9.82;;;;;;;;;;5124079;28;20249;-73
2022/07/20 08:25:17;;;;;;;16.75;9.77;;;;;;;;;;5105472;28;20212;-72
2022/07/20 08:27:43;;;;;;;16.75;10.32;;;;;;;;;;5123952;28;20020;-73
2022/07/20 08:30:09;;;;;;;18.42;10.13;;;;;;;;;;5123960;28;20192;-72
2022/07/20 08:32:34;;;;;;;15.35;9.60;;;;;;;;;;5124074;28;20023;-72
2022/07/20 08:35:00;;;;;;;14.32;9.60;;;;;;;;;;5123785;28;20073;-72
2022/07/20 08:37:25;;;;;;;19.05;10.30;;;;;;;;;;5123876;28;20215;-73
2022/07/20 08:39:50;;;;;;;14.52;9.18;;;;;;;;;;5123634;28;20027;-73
2022/07/20 08:42:16;;;;;;;17.08;10.40;;;;;;;;;;5123789;28;20023;-73
2022/07/20 08:44:43;;;;;;;13.77;9.68;;;;;;;;;;5123248;28;20331;-73
2022/07/20 08:47:13;;;;;;;16.95;9.05;;;;;;;;;;5116258;28;20027;-72
2022/07/20 08:49:49;;;;;;;17.60;10.30;;;;;;;;;;5116844;28;20031;-72
2022/07/20 08:52:16;;;;;;;18.00;8.90;;;;;;;;;;5110760;28;20027;-72
2022/07/20 08:54:42;;;;;;;17.52;8.90;;;;;;;;;;5115445;28;20253;-76
2022/07/20 08:57:12;;;;;;;15.20;9.10;;;;;;;;;;5123537;28;20016;-76
2022/07/20 08:59:37;;;;;;;14.07;9.00;;;;;;;;;;5114272;28;20031;-73
2022/07/20 09:02:08;;;;;;;17.55;9.02;;;;;;;;;;5120155;28;20224;-72
2022/07/20 09:04:55;;;;;;;13.43;8.30;;;;;;;;;;5112674;28;20015;-72
2022/07/20 09:07:44;;;;;;;15.95;9.07;;;;;;;;;;5117691;28;20028;-73
2022/07/20 09:10:15;;;;;;;16.75;8.85;;;;;;;;;;5123165;28;20032;-72
2022/07/20 09:12:56;;;;;;;15.52;8.30;;;;;;;;;;5123249;28;20091;-72
2022/07/20 09:15:33;;;;;;;18.85;8.95;;;;;;;;;;5113316;28;20023;-73
2022/07/20 09:18:24;;;;;;;16.73;8.65;;;;;;;;;;5122758;28;20099;-72
2022/07/20 09:20:55;;;;;;;13.10;8.00;;;;;;;;;;5104771;28;20057;-72
2022/07/20 09:23:27;;;;;;;15.68;8.10;;;;;;;;;;5115725;28;20087;-72
2022/07/20 09:26:12;;;;;;;15.63;7.88;;;;;;;;;;5115880;28;20116;-72
2022/07/20 09:28:49;;;;;;;14.70;7.97;;;;;;;;;;5111665;28;20026;-73
2022/07/20 09:31:21;;;;;;;16.42;8.45;;;;;;;;;;5104690;28;20319;-72
2022/07/20 09:33:55;;;;;;;15.90;8.55;;;;;;;;;;5122211;28;20016;-72
2022/07/20 09:36:23;;;;;;;16.98;7.95;;;;;;;;;;5123035;28;20029;-72
2022/07/20 09:38:49;;;;;;;16.75;8.18;;;;;;;;;;5104012;28;20077;-73
2022/07/20 09:41:27;;;;;;;14.65;8.55;;;;;;;;;;5118709;28;20208;-73
2022/07/20 09:43:53;;;;;;;18.58;9.52;;;;;;;;;;5115296;28;20282;-72
2022/07/20 09:46:20;;;;;;;16.60;9.02;;;;;;;;;;5122645;28;20031;-72
2022/07/20 09:48:51;;;;;;;14.18;8.75;;;;;;;;;;5122161;28;20028;-73
2022/07/20 09:51:25;;;;;;;18.80;9.10;;;;;;;;;;5122467;28;20065;-72
2022/07/20 09:53:59;;;;;;;16.50;9.32;;;;;;;;;;5121247;28;20023;-72
2022/07/20 09:56:26;;;;;;;18.80;9.13;;;;;;;;;;5114952;28;20027;-72
2022/07/20 09:58:54;;;;;;;17.23;9.45;;;;;;;;;;5121810;28;20312;-72
2022/07/20 10:01:23;;;;;;;17.15;9.75;;;;;;;;;;5119333;28;20315;-73
2022/07/20 10:03:52;;;;;;;19.85;10.15;;;;;;;;;;5121938;28;20081;-73
2022/07/20 10:06:19;;;;;;;19.65;10.55;;;;;;;;;;5115390;28;20338;-73
2022/07/20 10:08:45;;;;;;;18.08;10.23;;;;;;;;;;5121743;28;20031;-72
2022/07/20 10:11:12;;;;;;;16.27;10.25;;;;;;;;;;5121999;28;20189;-73
2022/07/20 10:13:39;;;;;;;19.70;9.30;;;;;;;;;;5122027;28;20031;-73
2022/07/20 10:16:20;;;;;;;17.70;9.63;;;;;;;;;;5118073;28;20035;-72
2022/07/20 10:18:47;;;;;;;17.83;8.60;;;;;;;;;;5112337;28;20324;-72
2022/07/20 10:21:32;;;;;;;21.08;7.75;;;;;;;;;;5122123;28;20049;-75
2022/07/20 10:24:25;;;;;;;13.38;8.02;;;;;;;;;;5121940;28;20023;-73
2022/07/20 10:26:53;;;;;;;18.77;8.80;;;;;;;;;;5108905;28;20023;-73
2022/07/20 10:29:26;;;;;;;19.15;9.90;;;;;;;;;;5121603;28;20025;-73
2022/07/20 10:31:54;;;;;;;13.65;8.18;;;;;;;;;;5109961;28;20076;-73
2022/07/20 10:34:50;;;;;;;14.88;7.95;;;;;;;;;;5121117;28;20027;-73
2022/07/20 10:37:29;;;;;;;14.13;7.97;;;;;;;;;;5113828;28;20023;-73
2022/07/20 10:39:58;;;;;;;16.27;8.10;;;;;;;;;;5117813;28;20032;-73
2022/07/20 10:42:33;;;;;;;14.68;8.10;;;;;;;;;;5110673;28;20026;-73
2022/07/20 10:45:17;;;;;;;16.52;7.80;;;;;;;;;;5117363;28;20310;-73
2022/07/20 10:47:45;;;;;;;13.60;7.57;;;;;;;;;;5121238;28;20342;-73
2022/07/20 10:50:33;;;;;;;14.57;8.32;;;;;;;;;;5118352;28;20020;-73
2022/07/20 10:53:23;;;;;;;18.23;8.40;;;;;;;;;;5121061;28;20031;-73
2022/07/20 10:56:00;;;;;;;16.50;8.27;;;;;;;;;;5110355;28;20015;-72
2022/07/20 10:58:31;;;;;;;15.68;8.35;;;;;;;;;;5121214;28;20020;-73
2022/07/20 11:00:57;;;;;;;17.25;8.05;;;;;;;;;;5121249;28;20069;-72
2022/07/20 11:03:29;;;;;;;14.18;7.90;;;;;;;;;;5121330;28;20023;-73
2022/07/20 11:06:02;;;;;;;13.98;8.32;;;;;;;;;;5111520;28;20299;-73
2022/07/20 11:08:28;;;;;;;16.10;8.65;;;;;;;;;;5120858;28;20081;-73
2022/07/20 11:10:54;;;;;;;17.10;8.60;;;;;;;;;;5121408;28;20212;-73
2022/07/20 11:13:19;;;;;;;18.13;9.00;;;;;;;;;;5121458;28;20056;-73
2022/07/20 11:15:47;;;;;;;15.90;8.45;;;;;;;;;;5121279;28;20342;-74
2022/07/20 11:18:17;;;;;;;16.40;8.82;;;;;;;;;;5121108;28;20051;-73
2022/07/20 11:20:49;;;;;;;19.58;8.85;;;;;;;;;;5121054;28;20292;-73
2022/07/20 11:23:16;;;;;;;16.95;9.57;;;;;;;;;;5121042;28;20024;-73
2022/07/20 11:26:04;;;;;;;21.92;9.77;;;;;;;;;;5121013;28;20031;-73
2022/07/20 11:28:34;;;;;;;21.42;10.02;;;;;;;;;;5108091;28;20036;-73
2022/07/20 11:31:01;;;;;;;17.52;9.45;;;;;;;;;;5120954;28;20035;-73
2022/07/20 11:33:33;;;;;;;18.90;9.82;;;;;;;;;;5120678;28;20312;-72
2022/07/20 11:36:02;;;;;;;19.38;10.15;;;;;;;;;;5120922;28;20055;-72
2022/07/20 11:38:42;;;;;;;16.95;10.75;;;;;;;;;;5120337;28;20323;-72
2022/07/20 11:41:16;;;;;;;19.50;11.00;;;;;;;;;;5120804;28;20227;-72
2022/07/20 11:43:41;;;;;;;29.40;11.20;;;;;;;;;;5120765;28;20084;-73
2022/07/20 11:46:13;;;;;;;21.83;11.70;;;;;;;;;;5120860;28;20027;-75
2022/07/20 11:48:39;;;;;;;22.98;12.18;;;;;;;;;;5124049;28;20299;-75
2022/07/20 11:51:06;;;;;;;23.95;11.73;;;;;;;;;;5118521;28;20024;-73
2022/07/20 11:53:36;;;;;;;22.55;12.05;;;;;;;;;;5124095;28;20061;-73
2022/07/20 11:56:05;;;;;;;21.92;11.52;;;;;;;;;;5124560;28;20051;-73
2022/07/20 11:58:33;;;;;;;16.55;9.15;;;;;;;;;;5124326;28;20032;-73
2022/07/20 12:01:00;;;;;;;16.77;8.23;;;;;;;;;;5124700;28;20026;-73
2022/07/20 12:03:32;;;;;;;17.00;9.10;;;;;;;;;;5124295;28;20090;-73
2022/07/20 12:06:09;;;;;;;18.95;9.27;;;;;;;;;;5117959;28;20072;-74
2022/07/20 12:08:34;;;;;;;21.15;8.80;;;;;;;;;;5124115;28;20091;-73
2022/07/20 12:11:00;;;;;;;16.27;9.52;;;;;;;;;;5124231;28;20023;-73
2022/07/20 12:13:27;;;;;;;18.40;10.50;;;;;;;;;;5124193;28;20320;-73
2022/07/20 12:15:54;;;;;;;20.77;10.43;;;;;;;;;;5124359;28;20070;-73
2022/07/20 12:18:35;;;;;;;19.85;10.32;;;;;;;;;;5124150;28;20148;-73
2022/07/20 12:21:01;;;;;;;20.73;9.93;;;;;;;;;;5124656;28;20023;-73
2022/07/20 12:23:28;;;;;;;16.42;9.80;;;;;;;;;;5123770;28;20015;-75
2022/07/20 12:25:53;;;;;;;18.50;9.07;;;;;;;;;;5099319;28;20027;-74
2022/07/20 12:28:37;;;;;;;17.40;9.40;;;;;;;;;;5117402;28;20271;-75
2022/07/20 12:31:14;;;;;;;18.08;9.23;;;;;;;;;;5117780;28;20023;-74
2022/07/20 12:34:19;;;;;;;21.65;9.98;;;;;;;;;;5113060;28;20045;-73
2022/07/20 12:36:49;;;;;;;19.23;9.55;;;;;;;;;;5111877;28;20099;-73
2022/07/20 12:39:40;;;;;;;20.25;10.23;;;;;;;;;;5117823;28;20057;-72
2022/07/20 12:42:10;;;;;;;19.20;9.68;;;;;;;;;;5115522;28;20031;-73
2022/07/20 12:44:35;;;;;;;17.00;8.35;;;;;;;;;;5121858;28;20043;-73
2022/07/20 12:47:01;;;;;;;15.85;8.32;;;;;;;;;;5123731;28;20035;-73
2022/07/20 12:49:28;;;;;;;15.10;7.90;;;;;;;;;;5123226;28;20412;-73
2022/07/20 12:51:54;;;;;;;13.55;7.57;;;;;;;;;;5117253;28;20228;-73
2022/07/20 12:54:20;;;;;;;13.32;7.03;;;;;;;;;;5123319;28;20208;-74
2022/07/20 12:56:47;;;;;;;15.10;7.50;;;;;;;;;;5123388;28;20028;-73
2022/07/20 12:59:13;;;;;;;12.88;6.30;;;;;;;;;;5104768;28;20043;-73
2022/07/20 13:01:39;;;;;;;13.23;6.05;;;;;;;;;;5123269;28;20378;-73
2022/07/20 13:04:05;;;;;;;16.38;6.63;;;;;;;;;;5123178;28;20076;-73
2022/07/20 13:06:32;;;;;;;14.70;7.10;;;;;;;;;;5116841;28;20027;-73
2022/07/20 13:08:58;;;;;;;12.68;7.20;;;;;;;;;;5122830;28;20070;-73
2022/07/20 13:11:23;;;;;;;18.13;7.10;;;;;;;;;;5123386;28;20019;-73
2022/07/20 13:13:49;;;;;;;20.25;7.72;;;;;;;;;;5122923;28;20083;-74
2022/07/20 13:16:14;;;;;;;16.58;6.40;;;;;;;;;;5123287;28;20024;-73
2022/07/20 13:18:40;;;;;;;10.88;5.95;;;;;;;;;;5122764;28;20237;-74
2022/07/20 13:21:05;;;;;;;13.32;6.55;;;;;;;;;;5122781;28;20047;-80
2022/07/20 13:23:31;;;;;;;13.85;6.10;;;;;;;;;;5122587;28;20016;-73
2022/07/20 13:25:56;;;;;;;13.38;5.68;;;;;;;;;;5122721;28;20024;-75
2022/07/20 13:28:22;;;;;;;12.93;5.43;;;;;;;;;;5122321;28;20099;-73
2022/07/20 13:30:47;;;;;;;8.90;4.88;;;;;;;;;;5104739;28;20032;-74
2022/07/20 13:33:13;;;;;;;10.93;4.90;;;;;;;;;;5122788;28;20027;-73
2022/07/20 13:35:41;;;;;;;10.10;5.00;;;;;;;;;;5122771;28;20085;-75
2022/07/20 13:38:07;;;;;;;8.75;4.20;;;;;;;;;;5122401;28;20020;-72
2022/07/20 13:40:32;;;;;;;7.85;4.18;;;;;;;;;;5121974;28;20102;-73
2022/07/20 13:42:59;;;;;;;8.00;3.95;;;;;;;;;;5122563;28;20031;-73
2022/07/20 13:45:25;;;;;;;9.77;4.03;;;;;;;;;;5122312;28;20045;-73
2022/07/20 13:47:50;;;;;;;10.55;4.32;;;;;;;;;;5122465;28;20342;-73
2022/07/20 13:50:16;;;;;;;9.93;4.53;;;;;;;;;;5122142;28;20026;-73
2022/07/20 13:52:41;;;;;;;8.63;4.63;;;;;;;;;;5097570;28;20073;-73
2022/07/20 13:55:08;;;;;;;9.75;4.60;;;;;;;;;;5121982;28;20346;-72
2022/07/20 13:57:33;;;;;;;9.80;4.35;;;;;;;;;;5122383;28;20072;-73
2022/07/20 13:59:58;;;;;;;11.18;4.63;;;;;;;;;;5122034;28;20028;-72
2022/07/20 14:02:24;;;;;;;8.32;4.05;;;;;;;;;;5122177;28;20047;-73
2022/07/20 14:04:49;;;;;;;8.00;4.00;;;;;;;;;;5120808;28;20027;-73
2022/07/20 14:07:15;;;;;;;8.07;4.10;;;;;;;;;;5116801;28;20207;-72
2022/07/20 14:09:40;;;;;;;8.13;3.70;;;;;;;;;;5120919;28;20111;-72
2022/07/20 14:12:06;;;;;;;9.20;3.83;;;;;;;;;;5122069;28;20024;-72
2022/07/20 14:14:32;;;;;;;11.32;5.03;;;;;;;;;;5121842;28;20026;-73
2022/07/20 14:16:57;;;;;;;7.20;4.00;;;;;;;;;;5122034;28;20087;-72
2022/07/20 14:19:23;;;;;;;8.02;3.80;;;;;;;;;;5121617;28;20104;-72
2022/07/20 14:21:48;;;;;;;7.78;4.00;;;;;;;;;;5121821;28;20015;-73
2022/07/20 14:24:14;;;;;;;10.45;4.28;;;;;;;;;;5121483;28;20020;-72
2022/07/20 14:26:39;;;;;;;6.53;3.88;;;;;;;;;;5116700;28;20020;-73
2022/07/20 14:29:04;;;;;;;10.75;4.50;;;;;;;;;;5119951;28;20027;-73
2022/07/20 14:31:31;;;;;;;9.98;4.63;;;;;;;;;;5121628;28;20346;-72
2022/07/20 14:33:57;;;;;;;10.15;4.82;;;;;;;;;;5121664;28;20077;-72